createdAt,value
2022-07-28T00:00:14.733Z,15.71
2022-07-28T00:01:04.580Z,15.70
2022-07-28T00:01:54.652Z,15.67
2022-07-28T00:02:44.697Z,15.66
2022-07-28T00:03:34.558Z,15.62
2022-07-28T00:04:24.547Z,15.58
2022-07-28T00:05:14.539Z,15.52
2022-07-28T00:06:04.555Z,15.48
2022-07-28T00:06:54.519Z,15.41
2022-07-28T00:07:44.508Z,15.35
2022-07-28T00:08:34.507Z,15.31
2022-07-28T00:09:24.620Z,15.31
2022-07-28T00:10:14.491Z,15.31
2022-07-28T00:11:04.475Z,15.28
2022-07-28T00:11:55.127Z,15.25
2022-07-28T00:12:44.489Z,15.27
2022-07-28T00:13:34.449Z,15.27
2022-07-28T00:14:24.436Z,15.27
2022-07-28T00:15:14.437Z,15.28
2022-07-28T00:16:04.468Z,15.30
2022-07-28T00:16:54.416Z,15.30
2022-07-28T00:17:44.399Z,15.30
2022-07-28T00:18:34.397Z,15.31
2022-07-28T00:19:24.378Z,15.30
2022-07-28T00:20:14.390Z,15.30
2022-07-28T00:21:04.367Z,15.31
2022-07-28T00:21:54.358Z,15.31
2022-07-28T00:22:44.346Z,15.30
2022-07-28T00:23:39.001Z,15.31
2022-07-28T00:24:25.328Z,15.33
2022-07-28T00:25:14.319Z,15.31
2022-07-28T00:26:04.317Z,15.30
2022-07-28T00:26:54.297Z,15.30
2022-07-28T00:27:44.286Z,15.28
2022-07-28T00:28:34.277Z,15.30
2022-07-28T00:29:24.269Z,15.27
2022-07-28T00:30:14.264Z,15.25
2022-07-28T00:31:05.273Z,15.23
2022-07-28T00:31:54.280Z,15.22
2022-07-28T00:32:44.228Z,15.22
2022-07-28T00:33:34.218Z,15.20
2022-07-28T00:34:26.603Z,15.22
2022-07-28T00:35:15.054Z,15.20
2022-07-28T00:36:04.226Z,15.22
2022-07-28T00:36:54.187Z,15.22
2022-07-28T00:37:44.185Z,15.22
2022-07-28T00:38:34.167Z,15.20
2022-07-28T00:39:24.167Z,15.19
2022-07-28T00:40:14.177Z,15.19
2022-07-28T00:41:04.137Z,15.16
2022-07-28T00:41:54.128Z,15.16
2022-07-28T00:42:44.126Z,15.16
2022-07-28T00:43:34.106Z,15.15
2022-07-28T00:44:24.110Z,15.13
2022-07-28T00:45:14.100Z,15.12
2022-07-28T00:46:04.159Z,15.09
2022-07-28T00:46:54.161Z,15.09
2022-07-28T00:47:44.074Z,15.03
2022-07-28T00:48:34.092Z,15.00
2022-07-28T00:49:24.126Z,14.98
2022-07-28T00:50:14.056Z,14.97
2022-07-28T00:51:04.041Z,14.94
2022-07-28T00:51:54.028Z,14.94
2022-07-28T00:52:44.016Z,14.94
2022-07-28T00:53:34.008Z,14.91
2022-07-28T00:54:24.006Z,14.90
2022-07-28T00:55:13.996Z,14.87
2022-07-28T00:56:06.028Z,14.90
2022-07-28T00:56:53.967Z,14.90
2022-07-28T00:57:43.956Z,14.90
2022-07-28T00:58:33.950Z,14.86
2022-07-28T00:59:23.936Z,14.90
2022-07-28T01:00:13.946Z,14.90
2022-07-28T01:01:03.930Z,14.90
2022-07-28T01:01:53.968Z,14.87
2022-07-28T01:02:44.048Z,14.86
2022-07-28T01:03:33.893Z,14.90
2022-07-28T01:04:23.884Z,14.90
2022-07-28T01:05:13.895Z,14.90
2022-07-28T01:06:03.866Z,14.87
2022-07-28T01:06:53.854Z,14.87
2022-07-28T01:07:43.852Z,14.85
2022-07-28T01:08:33.835Z,14.82
2022-07-28T01:09:23.845Z,14.82
2022-07-28T01:10:13.814Z,14.80
2022-07-28T01:11:03.812Z,14.78
2022-07-28T01:11:53.803Z,14.78
2022-07-28T01:12:43.801Z,14.78
2022-07-28T01:13:33.784Z,14.75
2022-07-28T01:14:23.794Z,14.75
2022-07-28T01:15:13.763Z,14.74
2022-07-28T01:16:03.788Z,14.67
2022-07-28T01:16:53.744Z,14.63
2022-07-28T01:17:43.736Z,14.59
2022-07-28T01:18:33.744Z,14.54
2022-07-28T01:19:23.723Z,14.46
2022-07-28T01:20:13.710Z,14.44
2022-07-28T01:21:03.695Z,14.42
2022-07-28T01:21:53.697Z,14.42
2022-07-28T01:22:43.685Z,14.39
2022-07-28T01:23:33.666Z,14.38
2022-07-28T01:24:23.691Z,14.38
2022-07-28T01:25:13.646Z,14.39
2022-07-28T01:26:03.643Z,14.38
2022-07-28T01:26:53.633Z,14.38
2022-07-28T01:27:43.624Z,14.38
2022-07-28T01:28:33.612Z,14.41
2022-07-28T01:29:23.605Z,14.38
2022-07-28T01:30:13.613Z,14.41
2022-07-28T01:31:03.634Z,14.38
2022-07-28T01:31:53.574Z,14.38
2022-07-28T01:32:43.572Z,14.38
2022-07-28T01:33:33.564Z,14.39
2022-07-28T01:34:23.551Z,14.38
2022-07-28T01:35:13.554Z,14.39
2022-07-28T01:36:03.535Z,14.36
2022-07-28T01:36:53.514Z,14.34
2022-07-28T01:37:43.512Z,14.34
2022-07-28T01:38:33.495Z,14.35
2022-07-28T01:39:23.510Z,14.35
2022-07-28T01:40:13.494Z,14.31
2022-07-28T01:41:03.473Z,14.30
2022-07-28T01:41:53.464Z,14.27
2022-07-28T01:42:43.462Z,14.26
2022-07-28T01:43:33.443Z,14.24
2022-07-28T01:44:23.443Z,14.21
2022-07-28T01:45:13.441Z,14.21
2022-07-28T01:46:03.511Z,14.20
2022-07-28T01:46:53.431Z,14.19
2022-07-28T01:47:43.410Z,14.17
2022-07-28T01:48:33.415Z,14.19
2022-07-28T01:49:23.475Z,14.19
2022-07-28T01:50:13.362Z,14.17
2022-07-28T01:51:03.365Z,14.16
2022-07-28T01:51:53.354Z,14.13
2022-07-28T01:52:43.344Z,14.12
2022-07-28T01:53:37.706Z,14.12
2022-07-28T01:54:24.340Z,14.13
2022-07-28T01:55:13.314Z,14.12
2022-07-28T01:56:03.310Z,14.13
2022-07-28T01:56:53.299Z,14.16
2022-07-28T01:57:43.291Z,14.12
2022-07-28T01:58:33.272Z,14.12
2022-07-28T01:59:23.301Z,14.11
2022-07-28T02:00:13.252Z,14.08
2022-07-28T02:01:03.251Z,14.05
2022-07-28T02:01:53.325Z,14.06
2022-07-28T02:02:43.237Z,14.04
2022-07-28T02:03:33.242Z,14.04
2022-07-28T02:04:23.221Z,14.02
2022-07-28T02:05:13.239Z,14.04
2022-07-28T02:06:03.206Z,14.05
2022-07-28T02:06:53.182Z,14.04
2022-07-28T02:07:43.179Z,14.02
2022-07-28T02:08:33.191Z,14.02
2022-07-28T02:09:23.163Z,14.02
2022-07-28T02:10:13.141Z,14.01
2022-07-28T02:11:03.148Z,14.04
2022-07-28T02:11:53.129Z,14.02
2022-07-28T02:12:43.141Z,14.01
2022-07-28T02:13:33.107Z,13.99
2022-07-28T02:14:23.106Z,14.01
2022-07-28T02:15:13.093Z,13.99
2022-07-28T02:16:03.117Z,13.94
2022-07-28T02:16:53.083Z,13.96
2022-07-28T02:17:43.061Z,13.93
2022-07-28T02:18:33.051Z,13.94
2022-07-28T02:19:23.050Z,13.91
2022-07-28T02:20:13.030Z,13.90
2022-07-28T02:21:03.028Z,13.93
2022-07-28T02:21:53.028Z,13.90
2022-07-28T02:22:43.016Z,13.88
2022-07-28T02:23:32.996Z,13.86
2022-07-28T02:24:23.003Z,13.84
2022-07-28T02:25:12.988Z,13.83
2022-07-28T02:26:02.970Z,13.84
2022-07-28T02:26:52.979Z,13.83
2022-07-28T02:27:42.951Z,13.81
2022-07-28T02:28:32.940Z,13.76
2022-07-28T02:29:49.358Z,13.73
2022-07-28T02:30:13.919Z,13.71
2022-07-28T02:31:02.975Z,13.71
2022-07-28T02:31:52.920Z,13.68
2022-07-28T02:32:42.904Z,13.69
2022-07-28T02:33:59.294Z,13.68
2022-07-28T02:34:27.784Z,13.65
2022-07-28T02:35:12.860Z,13.63
2022-07-28T02:36:02.860Z,13.62
2022-07-28T02:36:52.857Z,13.59
2022-07-28T02:37:42.839Z,13.55
2022-07-28T02:38:32.828Z,13.57
2022-07-28T02:39:22.828Z,13.57
2022-07-28T02:40:12.810Z,13.54
2022-07-28T02:41:02.799Z,13.50
2022-07-28T02:41:52.805Z,13.47
2022-07-28T02:42:42.786Z,13.47
2022-07-28T02:43:48.988Z,13.46
2022-07-28T02:44:23.778Z,13.43
2022-07-28T02:45:12.748Z,13.43
2022-07-28T02:46:02.829Z,13.44
2022-07-28T02:46:52.728Z,13.43
2022-07-28T02:47:42.735Z,13.47
2022-07-28T02:48:32.770Z,13.47
2022-07-28T02:49:22.803Z,13.47
2022-07-28T02:50:12.697Z,13.48
2022-07-28T02:51:02.688Z,13.50
2022-07-28T02:51:52.678Z,13.51
2022-07-28T02:52:42.675Z,13.51
2022-07-28T02:53:32.659Z,13.48
2022-07-28T02:54:22.647Z,13.51
2022-07-28T02:55:12.659Z,13.53
2022-07-28T02:56:02.637Z,13.51
2022-07-28T02:56:53.749Z,13.51
2022-07-28T02:57:42.617Z,13.53
2022-07-28T02:58:32.616Z,13.53
2022-07-28T02:59:22.596Z,13.54
2022-07-28T03:00:12.578Z,13.54
2022-07-28T03:01:02.628Z,13.54
2022-07-28T03:01:52.609Z,13.51
2022-07-28T03:02:42.558Z,13.53
2022-07-28T03:03:32.579Z,13.53
2022-07-28T03:04:22.538Z,13.50
2022-07-28T03:05:12.580Z,13.47
2022-07-28T03:06:02.517Z,13.47
2022-07-28T03:06:52.517Z,13.46
2022-07-28T03:07:50.774Z,13.44
2022-07-28T03:08:33.487Z,13.41
2022-07-28T03:09:22.485Z,13.38
2022-07-28T03:10:12.467Z,13.38
2022-07-28T03:11:02.465Z,13.38
2022-07-28T03:11:52.459Z,13.39
2022-07-28T03:12:42.446Z,13.38
2022-07-28T03:13:32.446Z,13.38
2022-07-28T03:14:22.431Z,13.38
2022-07-28T03:15:12.417Z,13.39
2022-07-28T03:16:02.416Z,13.41
2022-07-28T03:16:55.676Z,13.38
2022-07-28T03:17:42.404Z,13.38
2022-07-28T03:18:32.375Z,13.36
2022-07-28T03:19:22.373Z,13.38
2022-07-28T03:20:12.356Z,13.36
2022-07-28T03:21:02.356Z,13.36
2022-07-28T03:21:52.356Z,13.35
2022-07-28T03:22:42.333Z,13.35
2022-07-28T03:23:32.323Z,13.32
2022-07-28T03:24:22.315Z,13.35
2022-07-28T03:25:12.305Z,13.32
2022-07-28T03:26:02.297Z,13.31
2022-07-28T03:26:52.295Z,13.31
2022-07-28T03:27:42.276Z,13.29
2022-07-28T03:28:32.266Z,13.29
2022-07-28T03:29:22.256Z,13.27
2022-07-28T03:30:12.252Z,13.25
2022-07-28T03:31:02.303Z,13.22
2022-07-28T03:31:52.224Z,13.19
2022-07-28T03:32:42.222Z,13.17
2022-07-28T03:33:33.453Z,13.17
2022-07-28T03:34:22.205Z,13.17
2022-07-28T03:35:12.193Z,13.16
2022-07-28T03:36:02.203Z,13.14
2022-07-28T03:36:52.173Z,13.14
2022-07-28T03:37:42.167Z,13.14
2022-07-28T03:38:32.156Z,13.13
2022-07-28T03:39:22.148Z,13.13
2022-07-28T03:40:12.145Z,13.12
2022-07-28T03:41:02.133Z,13.13
2022-07-28T03:41:52.116Z,13.10
2022-07-28T03:42:42.113Z,13.09
2022-07-28T03:43:32.103Z,13.07
2022-07-28T03:44:27.985Z,13.06
2022-07-28T03:45:13.075Z,13.04
2022-07-28T03:46:02.168Z,13.04
2022-07-28T03:46:52.054Z,13.01
2022-07-28T03:47:42.044Z,12.99
2022-07-28T03:48:32.291Z,13.01
2022-07-28T03:49:22.091Z,12.99
2022-07-28T03:50:12.020Z,13.01
2022-07-28T03:51:02.024Z,13.03
2022-07-28T03:51:52.004Z,13.01
2022-07-28T03:52:42.015Z,13.01
2022-07-28T03:53:31.982Z,13.01
2022-07-28T03:54:21.993Z,13.03
2022-07-28T03:55:11.962Z,13.01
2022-07-28T03:56:01.954Z,12.99
2022-07-28T03:56:51.958Z,13.01
2022-07-28T03:57:41.962Z,13.01
2022-07-28T03:58:31.923Z,12.99
2022-07-28T03:59:22.005Z,12.98
2022-07-28T04:00:11.913Z,12.95
2022-07-28T04:01:01.940Z,12.95
2022-07-28T04:01:51.892Z,12.94
2022-07-28T04:02:41.963Z,12.94
2022-07-28T04:03:37.016Z,12.94
2022-07-28T04:04:22.852Z,12.92
2022-07-28T04:05:11.853Z,12.94
2022-07-28T04:06:01.848Z,12.92
2022-07-28T04:06:51.832Z,12.91
2022-07-28T04:07:41.862Z,12.91
2022-07-28T04:08:31.813Z,12.89
2022-07-28T04:09:21.799Z,12.89
2022-07-28T04:10:11.799Z,12.88
2022-07-28T04:11:01.794Z,12.88
2022-07-28T04:11:51.794Z,12.87
2022-07-28T04:12:41.762Z,12.87
2022-07-28T04:13:31.753Z,12.84
2022-07-28T04:14:22.186Z,12.80
2022-07-28T04:15:11.734Z,12.80
2022-07-28T04:16:01.740Z,12.79
2022-07-28T04:16:51.798Z,12.80
2022-07-28T04:17:41.702Z,12.84
2022-07-28T04:18:31.707Z,12.84
2022-07-28T04:19:21.681Z,12.84
2022-07-28T04:20:11.682Z,12.85
2022-07-28T04:21:01.681Z,12.88
2022-07-28T04:21:51.662Z,12.89
2022-07-28T04:22:41.649Z,12.91
2022-07-28T04:23:31.641Z,12.92
2022-07-28T04:24:21.631Z,12.92
2022-07-28T04:25:11.629Z,12.95
2022-07-28T04:26:01.634Z,12.94
2022-07-28T04:26:51.601Z,12.94
2022-07-28T04:27:41.587Z,12.94
2022-07-28T04:28:31.593Z,12.92
2022-07-28T04:29:23.505Z,12.89
2022-07-28T04:30:12.569Z,12.87
2022-07-28T04:31:01.619Z,12.81
2022-07-28T04:31:51.553Z,12.81
2022-07-28T04:32:41.529Z,12.81
2022-07-28T04:33:31.522Z,12.84
2022-07-28T04:34:21.511Z,12.84
2022-07-28T04:35:16.845Z,12.85
2022-07-28T04:36:02.489Z,12.87
2022-07-28T04:36:51.488Z,12.85
2022-07-28T04:37:41.471Z,12.85
2022-07-28T04:38:31.469Z,12.87
2022-07-28T04:39:21.460Z,12.88
2022-07-28T04:40:11.466Z,12.89
2022-07-28T04:41:01.438Z,12.91
2022-07-28T04:41:51.429Z,12.91
2022-07-28T04:42:41.419Z,12.92
2022-07-28T04:43:31.413Z,12.94
2022-07-28T04:44:21.402Z,12.95
2022-07-28T04:45:11.421Z,12.96
2022-07-28T04:46:01.451Z,12.99
2022-07-28T04:46:51.370Z,13.01
2022-07-28T04:47:41.360Z,13.03
2022-07-28T04:48:31.358Z,13.06
2022-07-28T04:49:21.366Z,13.06
2022-07-28T04:50:11.336Z,13.07
2022-07-28T04:51:01.339Z,13.07
2022-07-28T04:51:51.316Z,13.06
2022-07-28T04:52:41.298Z,13.07
2022-07-28T04:53:31.297Z,13.06
2022-07-28T04:54:26.368Z,13.06
2022-07-28T04:55:12.278Z,13.06
2022-07-28T04:56:01.276Z,13.04
2022-07-28T04:56:51.259Z,13.06
2022-07-28T04:57:41.238Z,13.06
2022-07-28T04:58:31.249Z,13.07
2022-07-28T04:59:21.238Z,13.07
2022-07-28T05:00:11.219Z,13.07
2022-07-28T05:01:01.258Z,13.10
2022-07-28T05:01:51.242Z,13.12
2022-07-28T05:02:41.202Z,13.13
2022-07-28T05:03:35.950Z,13.12
2022-07-28T05:04:22.251Z,13.14
2022-07-28T05:05:11.249Z,13.14
2022-07-28T05:06:01.147Z,13.16
2022-07-28T05:06:51.152Z,13.19
2022-07-28T05:07:41.131Z,13.21
2022-07-28T05:08:31.126Z,13.25
2022-07-28T05:09:21.116Z,13.27
2022-07-28T05:10:11.155Z,13.29
2022-07-28T05:11:01.087Z,13.29
2022-07-28T05:11:51.086Z,13.32
2022-07-28T05:12:41.078Z,13.35
2022-07-28T05:13:33.933Z,13.36
2022-07-28T05:14:21.055Z,13.39
2022-07-28T05:15:11.068Z,13.36
2022-07-28T05:16:01.037Z,13.35
2022-07-28T05:16:51.052Z,13.35
2022-07-28T05:17:41.015Z,13.36
2022-07-28T05:18:31.016Z,13.36
2022-07-28T05:19:21.005Z,13.36
2022-07-28T05:20:11.007Z,13.38
2022-07-28T05:21:00.976Z,13.38
2022-07-28T05:21:50.975Z,13.38
2022-07-28T05:22:40.956Z,13.38
2022-07-28T05:23:30.958Z,13.39
2022-07-28T05:24:20.945Z,13.41
2022-07-28T05:25:11.075Z,13.43
2022-07-28T05:26:00.925Z,13.39
2022-07-28T05:26:50.915Z,13.41
2022-07-28T05:27:40.914Z,13.44
2022-07-28T05:28:30.897Z,13.43
2022-07-28T05:29:20.886Z,13.44
2022-07-28T05:30:10.904Z,13.47
2022-07-28T05:31:00.865Z,13.47
2022-07-28T05:31:50.924Z,13.48
2022-07-28T05:32:40.850Z,13.51
2022-07-28T05:33:32.020Z,13.54
2022-07-28T05:34:20.824Z,13.57
2022-07-28T05:35:10.849Z,13.59
2022-07-28T05:36:00.805Z,13.61
2022-07-28T05:36:50.805Z,13.63
2022-07-28T05:37:40.793Z,13.66
2022-07-28T05:38:30.794Z,13.66
2022-07-28T05:39:20.775Z,13.66
2022-07-28T05:40:10.905Z,13.68
2022-07-28T05:41:00.756Z,13.68
2022-07-28T05:41:50.746Z,13.68
2022-07-28T05:42:40.735Z,13.69
2022-07-28T05:43:30.736Z,13.71
2022-07-28T05:44:20.721Z,13.72
2022-07-28T05:45:15.767Z,13.72
2022-07-28T05:46:01.792Z,13.75
2022-07-28T05:46:50.694Z,13.76
2022-07-28T05:47:40.683Z,13.76
2022-07-28T05:48:30.705Z,13.76
2022-07-28T05:49:20.697Z,13.76
2022-07-28T05:50:10.654Z,13.76
2022-07-28T05:51:00.644Z,13.76
2022-07-28T05:51:50.650Z,13.76
2022-07-28T05:52:40.623Z,13.80
2022-07-28T05:53:30.637Z,13.80
2022-07-28T05:54:20.606Z,13.84
2022-07-28T05:55:10.777Z,13.87
2022-07-28T05:56:01.858Z,13.87
2022-07-28T05:56:50.583Z,13.91
2022-07-28T05:57:40.601Z,13.93
2022-07-28T05:58:30.597Z,13.96
2022-07-28T05:59:20.551Z,13.99
2022-07-28T06:00:10.544Z,14.02
2022-07-28T06:01:00.659Z,14.05
2022-07-28T06:01:50.564Z,14.06
2022-07-28T06:02:40.581Z,14.06
2022-07-28T06:03:30.562Z,14.09
2022-07-28T06:04:28.783Z,14.11
2022-07-28T06:05:11.490Z,14.12
2022-07-28T06:06:15.357Z,14.13
2022-07-28T06:06:51.474Z,14.16
2022-07-28T06:07:43.552Z,14.16
2022-07-28T06:08:30.463Z,14.17
2022-07-28T06:09:20.440Z,14.16
2022-07-28T06:10:10.432Z,14.21
2022-07-28T06:11:00.420Z,14.23
2022-07-28T06:11:50.852Z,14.24
2022-07-28T06:12:40.453Z,14.26
2022-07-28T06:13:30.392Z,14.29
2022-07-28T06:14:20.382Z,14.34
2022-07-28T06:15:10.380Z,14.34
2022-07-28T06:16:00.407Z,14.36
2022-07-28T06:16:50.397Z,14.38
2022-07-28T06:17:40.367Z,14.42
2022-07-28T06:18:30.342Z,14.45
2022-07-28T06:19:20.323Z,14.49
2022-07-28T06:20:10.321Z,14.53
2022-07-28T06:21:00.307Z,14.60
2022-07-28T06:21:50.302Z,14.61
2022-07-28T06:22:40.312Z,14.64
2022-07-28T06:23:30.281Z,14.67
2022-07-28T06:24:20.271Z,14.71
2022-07-28T06:25:10.270Z,14.75
2022-07-28T06:26:00.251Z,14.79
2022-07-28T06:26:50.281Z,14.80
2022-07-28T06:27:40.231Z,14.83
2022-07-28T06:28:30.248Z,14.86
2022-07-28T06:29:20.213Z,14.91
2022-07-28T06:30:10.211Z,14.93
2022-07-28T06:31:00.200Z,14.97
2022-07-28T06:31:50.270Z,14.98
2022-07-28T06:32:40.180Z,15.04
2022-07-28T06:33:30.192Z,15.09
2022-07-28T06:34:20.165Z,15.12
2022-07-28T06:35:10.161Z,15.16
2022-07-28T06:36:00.153Z,15.20
2022-07-28T06:36:50.141Z,15.23
2022-07-28T06:37:40.200Z,15.28
2022-07-28T06:38:30.158Z,15.33
2022-07-28T06:39:20.108Z,15.37
2022-07-28T06:40:10.101Z,15.38
2022-07-28T06:41:00.109Z,15.43
2022-07-28T06:41:50.082Z,15.52
2022-07-28T06:42:40.072Z,15.55
2022-07-28T06:43:30.675Z,15.59
2022-07-28T06:44:20.452Z,15.62
2022-07-28T06:45:10.050Z,15.67
2022-07-28T06:46:01.032Z,15.68
2022-07-28T06:46:50.090Z,15.73
2022-07-28T06:47:45.664Z,15.77
2022-07-28T06:48:31.045Z,15.81
2022-07-28T06:49:20.218Z,15.86
2022-07-28T06:50:26.151Z,15.91
2022-07-28T06:51:00.991Z,15.96
2022-07-28T06:51:49.980Z,16.03
2022-07-28T06:52:39.970Z,16.08
2022-07-28T06:53:33.820Z,16.16
2022-07-28T06:54:19.951Z,16.23
2022-07-28T06:55:09.951Z,16.29
2022-07-28T06:55:59.999Z,16.34
2022-07-28T06:56:49.919Z,16.40
2022-07-28T06:57:39.947Z,16.42
2022-07-28T06:58:29.926Z,16.52
2022-07-28T06:59:19.895Z,16.60
2022-07-28T07:00:09.890Z,16.67
2022-07-28T07:01:00.043Z,16.72
2022-07-28T07:01:49.879Z,16.81
2022-07-28T07:02:39.876Z,16.92
2022-07-28T07:03:29.887Z,17.18
2022-07-28T07:04:20.004Z,17.35
2022-07-28T07:05:09.878Z,17.39
2022-07-28T07:05:59.827Z,17.42
2022-07-28T07:06:49.825Z,17.45
2022-07-28T07:07:43.351Z,17.53
2022-07-28T07:08:29.807Z,17.65
2022-07-28T07:09:19.820Z,17.79
2022-07-28T07:10:09.788Z,17.89
2022-07-28T07:10:59.778Z,17.99
2022-07-28T07:11:49.775Z,18.05
2022-07-28T07:12:39.758Z,18.17
2022-07-28T07:13:29.759Z,18.31
2022-07-28T07:14:19.778Z,18.34
2022-07-28T07:15:09.739Z,18.36
2022-07-28T07:15:59.799Z,18.39
2022-07-28T07:16:49.839Z,18.46
2022-07-28T07:17:39.707Z,18.59
2022-07-28T07:18:29.706Z,18.64
2022-07-28T07:19:19.717Z,18.66
2022-07-28T07:20:09.687Z,18.72
2022-07-28T07:20:59.678Z,18.83
2022-07-28T07:21:49.668Z,18.86
2022-07-28T07:22:39.657Z,18.90
2022-07-28T07:23:29.657Z,18.94
2022-07-28T07:24:19.649Z,18.99
2022-07-28T07:25:09.636Z,19.02
2022-07-28T07:25:59.618Z,19.09
2022-07-28T07:26:49.616Z,19.16
2022-07-28T07:27:39.604Z,19.24
2022-07-28T07:28:29.599Z,19.31
2022-07-28T07:29:19.597Z,19.32
2022-07-28T07:30:09.587Z,19.34
2022-07-28T07:30:59.623Z,19.39
2022-07-28T07:31:52.895Z,19.42
2022-07-28T07:32:39.551Z,19.45
2022-07-28T07:33:29.545Z,19.45
2022-07-28T07:34:19.544Z,19.42
2022-07-28T07:35:09.530Z,19.43
2022-07-28T07:35:59.511Z,19.47
2022-07-28T07:36:49.506Z,19.52
2022-07-28T07:37:39.502Z,19.60
2022-07-28T07:38:29.589Z,19.64
2022-07-28T07:39:19.499Z,19.72
2022-07-28T07:40:09.467Z,19.83
2022-07-28T07:40:59.466Z,19.90
2022-07-28T07:41:49.448Z,20.01
2022-07-28T07:42:39.441Z,20.08
2022-07-28T07:43:29.448Z,20.12
2022-07-28T07:44:19.449Z,20.13
2022-07-28T07:45:09.409Z,20.17
2022-07-28T07:45:59.407Z,20.20
2022-07-28T07:46:49.440Z,20.25
2022-07-28T07:47:39.386Z,20.30
2022-07-28T07:48:29.370Z,20.30
2022-07-28T07:49:19.387Z,20.31
2022-07-28T07:50:09.368Z,20.31
2022-07-28T07:50:59.347Z,20.34
2022-07-28T07:51:49.327Z,20.40
2022-07-28T07:52:39.333Z,20.44
2022-07-28T07:53:29.309Z,20.53
2022-07-28T07:54:19.478Z,20.58
2022-07-28T07:55:09.294Z,20.64
2022-07-28T07:55:59.287Z,20.66
2022-07-28T07:56:49.268Z,20.68
2022-07-28T07:57:39.267Z,20.68
2022-07-28T07:58:29.257Z,20.69
2022-07-28T07:59:19.247Z,20.68
2022-07-28T08:00:28.070Z,20.63
2022-07-28T08:01:00.227Z,20.63
2022-07-28T08:01:49.247Z,20.66
2022-07-28T08:02:39.215Z,20.69
2022-07-28T08:03:29.198Z,20.71
2022-07-28T08:04:19.344Z,20.73
2022-07-28T08:05:10.284Z,20.76
2022-07-28T08:05:59.177Z,20.78
2022-07-28T08:06:49.158Z,20.79
2022-07-28T08:07:39.159Z,20.85
2022-07-28T08:08:29.137Z,20.88
2022-07-28T08:09:19.187Z,20.91
2022-07-28T08:10:09.118Z,20.94
2022-07-28T08:10:59.115Z,21.01
2022-07-28T08:11:49.105Z,21.06
2022-07-28T08:12:39.096Z,21.09
2022-07-28T08:13:29.077Z,21.11
2022-07-28T08:14:19.231Z,21.09
2022-07-28T08:15:09.118Z,21.13
2022-07-28T08:15:59.192Z,21.18
2022-07-28T08:16:49.039Z,21.26
2022-07-28T08:17:39.038Z,21.28
2022-07-28T08:18:29.019Z,21.28
2022-07-28T08:19:21.651Z,21.30
2022-07-28T08:20:09.015Z,21.33
2022-07-28T08:20:59.185Z,21.36
2022-07-28T08:21:48.987Z,21.40
2022-07-28T08:22:38.980Z,21.45
2022-07-28T08:23:28.965Z,21.49
2022-07-28T08:24:32.780Z,21.52
2022-07-28T08:25:09.947Z,21.55
2022-07-28T08:25:58.941Z,21.58
2022-07-28T08:26:48.938Z,21.67
2022-07-28T08:27:38.958Z,21.77
2022-07-28T08:28:28.910Z,21.85
2022-07-28T08:29:18.899Z,21.90
2022-07-28T08:30:08.879Z,21.93
2022-07-28T08:30:58.933Z,21.94
2022-07-28T08:31:48.948Z,22.01
2022-07-28T08:32:38.857Z,22.02
2022-07-28T08:33:28.837Z,22.05
2022-07-28T08:34:31.675Z,22.09
2022-07-28T08:35:32.299Z,22.15
2022-07-28T08:35:59.828Z,22.20
2022-07-28T08:36:48.798Z,22.26
2022-07-28T08:37:38.798Z,22.31
2022-07-28T08:38:28.777Z,22.35
2022-07-28T08:39:18.777Z,22.33
2022-07-28T08:40:08.759Z,22.30
2022-07-28T08:40:58.768Z,22.30
2022-07-28T08:41:48.737Z,22.30
2022-07-28T08:42:38.735Z,22.36
2022-07-28T08:43:28.727Z,22.38
2022-07-28T08:44:18.797Z,22.41
2022-07-28T08:45:08.717Z,22.42
2022-07-28T08:45:58.915Z,22.44
2022-07-28T08:46:48.744Z,22.45
2022-07-28T08:47:58.876Z,22.51
2022-07-28T08:48:29.658Z,22.60
2022-07-28T08:49:18.785Z,22.66
2022-07-28T08:50:08.659Z,22.70
2022-07-28T08:50:58.635Z,22.74
2022-07-28T08:51:48.617Z,22.75
2022-07-28T08:52:38.609Z,22.81
2022-07-28T08:53:28.598Z,22.89
2022-07-28T08:54:18.596Z,22.99
2022-07-28T08:55:08.576Z,23.07
2022-07-28T08:55:58.595Z,23.11
2022-07-28T08:56:48.556Z,23.07
2022-07-28T08:57:38.556Z,23.09
2022-07-28T08:58:28.537Z,23.06
2022-07-28T08:59:18.549Z,23.07
2022-07-28T09:00:08.515Z,23.11
2022-07-28T09:00:58.509Z,23.15
2022-07-28T09:01:51.607Z,23.16
2022-07-28T09:02:39.589Z,23.18
2022-07-28T09:03:28.534Z,23.19
2022-07-28T09:04:18.584Z,23.21
2022-07-28T09:05:08.456Z,23.18
2022-07-28T09:05:58.449Z,23.21
2022-07-28T09:06:48.449Z,23.21
2022-07-28T09:07:38.437Z,23.25
2022-07-28T09:08:28.415Z,23.32
2022-07-28T09:09:18.408Z,23.41
2022-07-28T09:10:08.397Z,23.47
2022-07-28T09:10:58.389Z,23.53
2022-07-28T09:11:48.388Z,23.62
2022-07-28T09:12:38.369Z,23.64
2022-07-28T09:13:28.355Z,23.74
2022-07-28T09:14:18.348Z,23.82
2022-07-28T09:15:08.340Z,23.79
2022-07-28T09:15:58.380Z,23.79
2022-07-28T09:16:48.339Z,23.82
2022-07-28T09:17:38.328Z,23.89
2022-07-28T09:18:28.298Z,23.94
2022-07-28T09:19:18.297Z,24.00
2022-07-28T09:20:11.083Z,24.06
2022-07-28T09:20:58.297Z,24.09
2022-07-28T09:21:48.308Z,24.12
2022-07-28T09:22:38.275Z,24.15
2022-07-28T09:23:42.105Z,24.16
2022-07-28T09:24:19.240Z,24.15
2022-07-28T09:25:08.219Z,24.15
2022-07-28T09:25:58.219Z,24.09
2022-07-28T09:26:48.199Z,24.04
2022-07-28T09:27:38.200Z,24.08
2022-07-28T09:28:28.344Z,24.14
2022-07-28T09:29:18.181Z,24.18
2022-07-28T09:30:08.167Z,24.24
2022-07-28T09:30:58.233Z,24.26
2022-07-28T09:31:52.359Z,24.26
2022-07-28T09:32:39.141Z,24.27
2022-07-28T09:33:41.237Z,24.30
2022-07-28T09:34:19.119Z,24.34
2022-07-28T09:35:08.110Z,24.36
2022-07-28T09:35:58.099Z,24.39
2022-07-28T09:36:48.090Z,24.42
2022-07-28T09:37:38.099Z,24.45
2022-07-28T09:38:28.080Z,24.44
2022-07-28T09:39:18.067Z,24.49
2022-07-28T09:40:10.542Z,24.56
2022-07-28T09:40:58.050Z,24.61
2022-07-28T09:41:48.041Z,24.64
2022-07-28T09:42:38.030Z,24.64
2022-07-28T09:43:28.040Z,24.66
2022-07-28T09:44:18.082Z,24.66
2022-07-28T09:45:24.555Z,24.66
2022-07-28T09:45:59.016Z,24.70
2022-07-28T09:46:48.162Z,24.70
2022-07-28T09:47:38.276Z,24.71
2022-07-28T09:48:28.095Z,24.75
2022-07-28T09:49:18.130Z,24.79
2022-07-28T09:50:08.063Z,24.84
2022-07-28T09:50:57.939Z,24.87
2022-07-28T09:51:47.921Z,24.92
2022-07-28T09:52:37.942Z,24.93
2022-07-28T09:53:28.512Z,24.92
2022-07-28T09:54:18.394Z,24.94
2022-07-28T09:55:07.884Z,24.98
2022-07-28T09:55:57.881Z,25.02
2022-07-28T09:56:47.880Z,25.08
2022-07-28T09:57:37.861Z,25.05
2022-07-28T09:58:27.848Z,24.98
2022-07-28T09:59:17.842Z,24.97
2022-07-28T10:00:07.830Z,24.99
2022-07-28T10:00:57.829Z,25.01
2022-07-28T10:01:47.884Z,25.02
2022-07-28T10:02:37.925Z,25.05
2022-07-28T10:03:27.790Z,25.09
2022-07-28T10:04:18.149Z,25.14
2022-07-28T10:05:07.773Z,25.16
2022-07-28T10:05:57.771Z,25.23
2022-07-28T10:06:47.760Z,25.27
2022-07-28T10:07:37.771Z,25.31
2022-07-28T10:08:27.732Z,25.36
2022-07-28T10:09:17.729Z,25.41
2022-07-28T10:10:07.749Z,25.44
2022-07-28T10:10:57.714Z,25.45
2022-07-28T10:11:47.700Z,25.48
2022-07-28T10:12:37.699Z,25.46
2022-07-28T10:13:27.682Z,25.45
2022-07-28T10:14:18.174Z,25.46
2022-07-28T10:15:07.661Z,25.51
2022-07-28T10:15:57.693Z,25.56
2022-07-28T10:16:47.641Z,25.53
2022-07-28T10:17:37.640Z,25.48
2022-07-28T10:18:27.622Z,25.41
2022-07-28T10:19:17.625Z,25.36
2022-07-28T10:20:07.602Z,25.29
2022-07-28T10:20:57.592Z,25.29
2022-07-28T10:21:47.741Z,25.29
2022-07-28T10:22:42.796Z,25.31
2022-07-28T10:23:28.573Z,25.38
2022-07-28T10:24:18.013Z,25.41
2022-07-28T10:25:07.552Z,25.41
2022-07-28T10:25:57.544Z,25.44
2022-07-28T10:26:47.554Z,25.46
2022-07-28T10:27:37.521Z,25.48
2022-07-28T10:28:27.513Z,25.49
2022-07-28T10:29:17.517Z,25.49
2022-07-28T10:30:07.494Z,25.57
2022-07-28T10:30:57.547Z,25.57
2022-07-28T10:31:47.473Z,25.57
2022-07-28T10:32:37.482Z,25.56
2022-07-28T10:33:27.463Z,25.57
2022-07-28T10:34:17.907Z,25.56
2022-07-28T10:35:08.434Z,25.60
2022-07-28T10:35:57.430Z,25.63
2022-07-28T10:36:47.443Z,25.64
2022-07-28T10:37:37.414Z,25.72
2022-07-28T10:38:27.401Z,25.79
2022-07-28T10:39:17.393Z,25.89
2022-07-28T10:40:10.341Z,25.97
2022-07-28T10:40:57.373Z,25.96
2022-07-28T10:41:47.363Z,25.90
2022-07-28T10:42:37.376Z,25.86
2022-07-28T10:43:27.344Z,25.83